< < Back
Terminal Aerodrome Forecast


Current Version              Previous Versions:   1  2  3  4  5  6  7  8  9  

Terminal Aerodrome Forecast

782
FTUS44 KBMX 022028 AAB
TAFBHM
TAF AMD
KBHM 022028Z 0220/0318 36005KT P6SM VCSH BKN050 BKN250
     FM030200 VRB03KT P6SM BKN200=

Latest METAR

061
SAUS70 KWBC 022100
MTRBHM
METAR KBHM 022053Z 00000KT 9SM BKN100 OVC250 29/24 A3005 RMK AO2
RAB1959E25 SLP168 P0000 60000 T02940239 58014


USA.gov is the U.S. government's official web portal to all federal, state and local government web resources and services.